Ute Pass, Colorado
Current Conditions -  °F | °C
As of 5:58 AM on Sunday 28 Dec 2014 (Local Time) from KAFF Reporting Station
Clear Clear  
Wind Chill:   Ceiling: Unl
Heat Index: 13°   Visibility: 10mi
Dew Point:   Wind: 5mph
Humidity: 56%   Direction: 30°NNE
Pressure: 29.88"   Gusts: NA
Location:  38.9453°N, 105.002°W
Report Text: KAFF 281258Z AUTO 03004KT 10SM CLR M10/M17 A2988 RMK AO2 SLP189 T11031175
Loading
Personal Weather Stations






























Interactive Weather Map New forecast layout! Learn more

10-Day Weather Forecast

Advertisements
Track Severe Weather on mobile